createdAt,value
2019-05-15T00:00:45.367Z,24.25
2019-05-15T00:01:50.046Z,20.92
2019-05-15T00:02:54.318Z,17.62
2019-05-15T00:03:58.914Z,21.85
2019-05-15T00:05:03.500Z,23.07
2019-05-15T00:06:08.616Z,24.77
2019-05-15T00:07:13.126Z,20.50
2019-05-15T00:08:18.376Z,23.38
2019-05-15T00:09:24.218Z,28.85
2019-05-15T00:10:28.986Z,21.25
2019-05-15T00:11:35.771Z,26.27
2019-05-15T00:12:40.486Z,20.00
2019-05-15T00:13:44.910Z,19.62
2019-05-15T00:14:49.529Z,24.82
2019-05-15T00:15:53.828Z,22.17
2019-05-15T00:16:58.748Z,26.90
2019-05-15T00:18:02.811Z,21.07
2019-05-15T00:19:08.691Z,20.77
2019-05-15T00:20:12.962Z,22.13
2019-05-15T00:21:17.977Z,21.87
2019-05-15T00:22:25.122Z,25.52
2019-05-15T00:23:29.845Z,24.35
2019-05-15T00:24:38.006Z,24.07
2019-05-15T00:25:41.966Z,19.12
2019-05-15T00:26:48.069Z,21.68
2019-05-15T00:27:52.472Z,20.50
2019-05-15T00:29:09.579Z,22.75
2019-05-15T00:30:03.012Z,20.97
2019-05-15T00:31:09.056Z,19.87
2019-05-15T00:32:13.834Z,20.55
2019-05-15T00:33:19.358Z,22.35
2019-05-15T00:34:25.966Z,24.40
2019-05-15T00:35:31.696Z,20.37
2019-05-15T00:36:38.310Z,19.48
2019-05-15T00:37:42.242Z,20.77
2019-05-15T00:38:48.324Z,22.48
2019-05-15T00:39:54.428Z,19.73
2019-05-15T00:40:59.190Z,22.30
2019-05-15T00:42:03.408Z,26.07
2019-05-15T00:43:08.839Z,21.15
2019-05-15T00:44:13.100Z,27.05
2019-05-15T00:45:18.556Z,20.08
2019-05-15T00:46:22.795Z,23.62
2019-05-15T00:47:28.714Z,22.82
2019-05-15T00:48:33.165Z,22.75
2019-05-15T00:49:38.352Z,20.50
2019-05-15T00:50:42.609Z,23.22
2019-05-15T00:51:48.933Z,23.10
2019-05-15T00:52:53.213Z,24.27
2019-05-15T00:53:58.916Z,27.75
2019-05-15T00:55:05.178Z,20.62
2019-05-15T00:56:11.444Z,27.22
2019-05-15T00:57:15.581Z,24.92
2019-05-15T00:58:20.832Z,22.10
2019-05-15T00:59:27.530Z,22.37
2019-05-15T01:00:44.904Z,22.98
2019-05-15T01:01:49.082Z,23.83
2019-05-15T01:02:53.852Z,23.73
2019-05-15T01:03:58.577Z,21.97
2019-05-15T01:05:04.028Z,26.33
2019-05-15T01:06:08.476Z,21.25
2019-05-15T01:07:13.248Z,22.35
2019-05-15T01:08:19.183Z,22.30
2019-05-15T01:09:23.753Z,19.65
2019-05-15T01:10:28.630Z,23.30
2019-05-15T01:11:33.841Z,24.92
2019-05-15T01:12:38.122Z,23.98
2019-05-15T01:13:48.423Z,26.05
2019-05-15T01:14:52.620Z,23.83
2019-05-15T01:15:58.393Z,22.58
2019-05-15T01:17:02.460Z,23.20
2019-05-15T01:18:09.047Z,21.70
2019-05-15T01:19:15.047Z,23.38
2019-05-15T01:20:21.081Z,21.02
2019-05-15T01:21:29.687Z,20.97
2019-05-15T01:22:39.041Z,23.05
2019-05-15T01:23:45.349Z,23.83
2019-05-15T01:24:50.103Z,22.58
2019-05-15T01:25:54.425Z,19.98
2019-05-15T01:27:00.198Z,21.68
2019-05-15T01:28:04.510Z,23.77
2019-05-15T01:29:09.376Z,25.20
2019-05-15T01:30:14.399Z,22.05
2019-05-15T01:31:19.224Z,20.40
2019-05-15T01:32:23.451Z,22.45
2019-05-15T01:33:29.952Z,20.72
2019-05-15T01:34:34.057Z,23.27
2019-05-15T01:35:38.711Z,20.20
2019-05-15T01:36:42.937Z,23.20
2019-05-15T01:37:48.308Z,21.02
2019-05-15T01:38:52.557Z,22.73
2019-05-15T01:40:00.489Z,24.82
2019-05-15T01:41:04.630Z,20.40
2019-05-15T01:42:11.714Z,24.12
2019-05-15T01:43:18.490Z,24.07
2019-05-15T01:44:23.721Z,21.90
2019-05-15T01:45:28.665Z,22.98
2019-05-15T01:46:35.160Z,22.82
2019-05-15T01:47:39.645Z,21.52
2019-05-15T01:48:44.283Z,26.35
2019-05-15T01:49:49.170Z,22.48
2019-05-15T01:50:54.069Z,23.07
2019-05-15T01:51:58.649Z,20.80
2019-05-15T01:53:03.570Z,20.35
2019-05-15T01:54:09.169Z,18.90
2019-05-15T01:55:14.137Z,19.35
2019-05-15T01:56:19.807Z,23.10
2019-05-15T01:57:24.414Z,19.52
2019-05-15T01:58:28.845Z,19.55
2019-05-15T01:59:34.725Z,19.48
2019-05-15T02:00:41.823Z,22.77
2019-05-15T02:02:01.339Z,21.33
2019-05-15T02:03:00.453Z,19.57
2019-05-15T02:04:05.219Z,19.73
2019-05-15T02:05:10.362Z,21.12
2019-05-15T02:06:15.915Z,24.50
2019-05-15T02:07:20.543Z,24.27
2019-05-15T02:08:25.212Z,22.20
2019-05-15T02:09:29.285Z,21.60
2019-05-15T02:10:34.060Z,23.50
2019-05-15T02:11:38.395Z,24.43
2019-05-15T02:12:43.079Z,22.58
2019-05-15T02:13:47.992Z,23.77
2019-05-15T02:14:53.085Z,22.45
2019-05-15T02:15:58.890Z,25.43
2019-05-15T02:17:03.623Z,20.68
2019-05-15T02:18:08.427Z,24.23
2019-05-15T02:19:13.869Z,23.85
2019-05-15T02:20:18.722Z,21.93
2019-05-15T02:21:23.797Z,21.93
2019-05-15T02:22:28.349Z,21.33
2019-05-15T02:23:33.543Z,21.23
2019-05-15T02:24:39.080Z,23.07
2019-05-15T02:25:44.109Z,20.40
2019-05-15T02:26:49.843Z,22.67
2019-05-15T02:27:54.787Z,20.90
2019-05-15T02:29:00.826Z,22.17
2019-05-15T02:30:22.263Z,21.85
2019-05-15T02:31:14.444Z,21.62
2019-05-15T02:32:20.602Z,21.17
2019-05-15T02:33:25.296Z,20.17
2019-05-15T02:34:30.507Z,22.48
2019-05-15T02:35:38.860Z,21.62
2019-05-15T02:36:42.439Z,21.50
2019-05-15T02:37:49.566Z,21.10
2019-05-15T02:38:59.624Z,17.15
2019-05-15T02:40:02.938Z,20.20
2019-05-15T02:41:09.835Z,18.05
2019-05-15T02:42:13.510Z,15.95
2019-05-15T02:43:19.444Z,15.15
2019-05-15T02:44:23.952Z,18.20
2019-05-15T02:45:31.547Z,18.70
2019-05-15T02:46:38.943Z,16.10
2019-05-15T02:47:42.575Z,18.52
2019-05-15T02:48:49.073Z,16.48
2019-05-15T02:49:55.345Z,17.15
2019-05-15T02:51:01.297Z,16.93
2019-05-15T02:52:09.585Z,15.75
2019-05-15T02:53:13.804Z,16.40
2019-05-15T02:54:21.089Z,18.20
2019-05-15T02:55:29.838Z,14.43
2019-05-15T02:56:34.756Z,14.55
2019-05-15T02:57:39.591Z,16.05
2019-05-15T02:58:44.503Z,16.30
2019-05-15T02:59:49.795Z,14.85
2019-05-15T03:00:59.117Z,17.15
2019-05-15T03:02:02.194Z,16.67
2019-05-15T03:03:09.446Z,19.02
2019-05-15T03:04:12.589Z,17.12
2019-05-15T03:05:19.505Z,21.05
2019-05-15T03:06:23.148Z,19.95
2019-05-15T03:07:29.536Z,20.05
2019-05-15T03:08:33.917Z,18.65
2019-05-15T03:09:39.966Z,16.93
2019-05-15T03:10:44.449Z,18.48
2019-05-15T03:11:49.707Z,18.15
2019-05-15T03:12:54.213Z,17.62
2019-05-15T03:13:59.422Z,18.37
2019-05-15T03:15:04.093Z,16.90
2019-05-15T03:16:10.048Z,17.25
2019-05-15T03:17:14.623Z,18.85
2019-05-15T03:18:19.570Z,16.87
2019-05-15T03:19:23.845Z,17.40
2019-05-15T03:20:30.049Z,20.52
2019-05-15T03:21:34.307Z,18.98
2019-05-15T03:22:40.203Z,18.50
2019-05-15T03:23:44.660Z,19.70
2019-05-15T03:24:50.325Z,17.02
2019-05-15T03:25:54.758Z,16.97
2019-05-15T03:27:00.592Z,18.42
2019-05-15T03:28:04.621Z,21.00
2019-05-15T03:29:09.904Z,18.65
2019-05-15T03:30:15.240Z,20.92
2019-05-15T03:31:43.549Z,17.90
2019-05-15T03:32:41.075Z,20.68
2019-05-15T03:33:43.875Z,25.65
2019-05-15T03:34:47.700Z,20.97
2019-05-15T03:35:53.568Z,21.40
2019-05-15T03:36:54.400Z,18.07
2019-05-15T03:37:59.818Z,17.10
2019-05-15T03:39:05.946Z,17.55
2019-05-15T03:40:11.928Z,17.70
2019-05-15T03:41:19.196Z,17.32
2019-05-15T03:42:22.385Z,17.87
2019-05-15T03:43:29.263Z,19.37
2019-05-15T03:44:34.274Z,23.50
2019-05-15T03:45:40.467Z,21.62
2019-05-15T03:46:44.660Z,18.67
2019-05-15T03:47:49.265Z,21.57
2019-05-15T03:48:53.987Z,17.73
2019-05-15T03:50:00.114Z,18.52
2019-05-15T03:51:04.521Z,19.45
2019-05-15T03:52:09.989Z,19.73
2019-05-15T03:53:14.927Z,21.15
2019-05-15T03:54:22.096Z,16.30
2019-05-15T03:55:29.648Z,15.88
2019-05-15T03:56:32.641Z,19.20
2019-05-15T03:57:39.992Z,21.57
2019-05-15T03:58:44.665Z,19.75
2019-05-15T03:59:49.382Z,21.10
2019-05-15T04:00:53.639Z,18.32
2019-05-15T04:01:59.939Z,22.75
2019-05-15T04:03:04.295Z,20.55
2019-05-15T04:04:11.675Z,20.15
2019-05-15T04:05:15.885Z,20.32
2019-05-15T04:06:20.525Z,16.73
2019-05-15T04:07:29.203Z,19.98
2019-05-15T04:08:34.087Z,26.23
2019-05-15T04:09:38.768Z,20.95
2019-05-15T04:10:43.651Z,16.82
2019-05-15T04:11:49.658Z,19.60
2019-05-15T04:12:54.154Z,18.50
2019-05-15T04:13:59.438Z,18.30
2019-05-15T04:15:09.795Z,20.80
2019-05-15T04:16:12.555Z,19.17
2019-05-15T04:17:19.819Z,19.40
2019-05-15T04:18:23.033Z,16.82
2019-05-15T04:19:29.594Z,18.10
2019-05-15T04:20:33.442Z,17.70
2019-05-15T04:21:43.883Z,18.27
2019-05-15T04:22:45.484Z,18.77
2019-05-15T04:23:50.486Z,20.20
2019-05-15T04:24:55.239Z,18.62
2019-05-15T04:25:59.987Z,15.18
2019-05-15T04:27:07.173Z,16.42
2019-05-15T04:28:12.694Z,18.30
2019-05-15T04:29:19.497Z,18.82
2019-05-15T04:30:23.561Z,17.65
2019-05-15T04:31:35.510Z,19.55
2019-05-15T04:32:34.046Z,17.73
2019-05-15T04:33:39.943Z,16.77
2019-05-15T04:34:44.424Z,19.40
2019-05-15T04:35:49.674Z,19.20
2019-05-15T04:36:54.682Z,18.67
2019-05-15T04:37:59.670Z,18.82
2019-05-15T04:39:09.856Z,16.97
2019-05-15T04:40:13.282Z,18.85
2019-05-15T04:41:19.795Z,18.52
2019-05-15T04:42:23.631Z,16.37
2019-05-15T04:43:30.229Z,20.30
2019-05-15T04:44:35.025Z,16.62
2019-05-15T04:45:39.949Z,19.67
2019-05-15T04:46:44.054Z,18.15
2019-05-15T04:47:49.837Z,18.05
2019-05-15T04:48:54.310Z,19.77
2019-05-15T04:50:01.048Z,19.20
2019-05-15T04:51:05.138Z,14.70
2019-05-15T04:52:10.483Z,19.82
2019-05-15T04:53:19.140Z,17.87
2019-05-15T04:54:24.254Z,19.07
2019-05-15T04:55:29.190Z,19.57
2019-05-15T04:56:34.187Z,18.10
2019-05-15T04:57:40.222Z,17.92
2019-05-15T04:58:44.954Z,20.45
2019-05-15T04:59:49.675Z,17.00
2019-05-15T05:00:55.575Z,15.60
2019-05-15T05:02:16.414Z,18.60
2019-05-15T05:03:06.194Z,18.92
2019-05-15T05:04:10.450Z,17.65
2019-05-15T05:05:15.092Z,16.40
2019-05-15T05:06:20.809Z,19.20
2019-05-15T05:07:25.548Z,16.23
2019-05-15T05:08:29.756Z,18.05
2019-05-15T05:09:34.522Z,17.98
2019-05-15T05:10:39.532Z,20.10
2019-05-15T05:11:44.421Z,20.72
2019-05-15T05:12:50.913Z,19.25
2019-05-15T05:13:54.984Z,17.20
2019-05-15T05:14:59.139Z,16.27
2019-05-15T05:16:03.769Z,18.92
2019-05-15T05:17:09.173Z,19.98
2019-05-15T05:18:14.326Z,18.70
2019-05-15T05:19:19.556Z,15.90
2019-05-15T05:20:25.823Z,16.60
2019-05-15T05:21:30.534Z,15.40
2019-05-15T05:22:35.331Z,18.45
2019-05-15T05:23:39.622Z,17.85
2019-05-15T05:24:44.382Z,18.35
2019-05-15T05:25:49.371Z,15.25
2019-05-15T05:26:54.227Z,16.55
2019-05-15T05:27:58.468Z,16.60
2019-05-15T05:29:03.176Z,14.75
2019-05-15T05:30:09.234Z,16.07
2019-05-15T05:31:14.365Z,14.23
2019-05-15T05:32:30.951Z,17.45
2019-05-15T05:33:24.913Z,13.75
2019-05-15T05:34:31.175Z,14.60
2019-05-15T05:35:35.818Z,14.13
2019-05-15T05:36:40.019Z,16.62
2019-05-15T05:37:44.841Z,13.62
2019-05-15T05:38:51.163Z,16.77
2019-05-15T05:39:57.613Z,17.70
2019-05-15T05:41:01.725Z,13.05
2019-05-15T05:42:07.898Z,16.60
2019-05-15T05:43:12.097Z,16.80
2019-05-15T05:44:18.870Z,15.30
2019-05-15T05:45:23.327Z,12.88
2019-05-15T05:46:28.106Z,12.40
2019-05-15T05:47:32.513Z,14.80
2019-05-15T05:48:38.318Z,14.83
2019-05-15T05:49:44.967Z,15.38
2019-05-15T05:50:50.252Z,16.62
2019-05-15T05:51:54.686Z,17.25
2019-05-15T05:53:00.998Z,14.78
2019-05-15T05:54:08.457Z,17.82
2019-05-15T05:55:13.088Z,18.52
2019-05-15T05:56:18.226Z,14.10
2019-05-15T05:57:23.180Z,14.45
2019-05-15T05:58:29.694Z,15.30
2019-05-15T05:59:33.742Z,15.45
2019-05-15T06:00:40.830Z,18.55
2019-05-15T06:01:48.172Z,17.27
2019-05-15T06:02:52.283Z,18.37
2019-05-15T06:03:58.346Z,14.53
2019-05-15T06:05:02.540Z,16.02
2019-05-15T06:06:09.731Z,16.87
2019-05-15T06:07:14.251Z,14.63
2019-05-15T06:08:20.114Z,18.35
2019-05-15T06:09:24.912Z,11.88
2019-05-15T06:10:31.263Z,15.78
2019-05-15T06:11:38.142Z,16.77
2019-05-15T06:12:52.380Z,16.97
2019-05-15T06:13:58.541Z,16.40
2019-05-15T06:15:03.442Z,16.02
2019-05-15T06:16:10.195Z,15.25
2019-05-15T06:17:15.237Z,15.28
2019-05-15T06:18:20.087Z,17.73
2019-05-15T06:19:25.042Z,14.87
2019-05-15T06:20:29.343Z,13.55
2019-05-15T06:21:34.081Z,15.58
2019-05-15T06:22:39.379Z,14.07
2019-05-15T06:23:54.710Z,14.43
2019-05-15T06:24:50.428Z,14.33
2019-05-15T06:25:55.635Z,15.63
2019-05-15T06:27:00.017Z,18.57
2019-05-15T06:28:09.111Z,15.32
2019-05-15T06:29:20.095Z,14.58
2019-05-15T06:30:30.953Z,14.60
2019-05-15T06:31:35.402Z,14.93
2019-05-15T06:32:40.695Z,14.07
2019-05-15T06:33:44.870Z,14.10
2019-05-15T06:34:51.078Z,14.87
2019-05-15T06:35:55.278Z,16.12
2019-05-15T06:37:00.075Z,16.10
2019-05-15T06:38:04.288Z,17.75
2019-05-15T06:39:10.402Z,14.00
2019-05-15T06:40:18.313Z,15.72
2019-05-15T06:41:23.051Z,17.07
2019-05-15T06:42:28.289Z,18.05
2019-05-15T06:43:33.164Z,18.30
2019-05-15T06:44:38.805Z,17.20
2019-05-15T06:45:43.652Z,13.48
2019-05-15T06:46:50.678Z,17.02
2019-05-15T06:47:57.804Z,19.65
2019-05-15T06:49:01.296Z,16.20
2019-05-15T06:50:08.633Z,15.35
2019-05-15T06:51:12.899Z,15.20
2019-05-15T06:52:18.104Z,14.03
2019-05-15T06:53:22.327Z,17.05
2019-05-15T06:54:28.433Z,18.37
2019-05-15T06:55:32.732Z,13.18
2019-05-15T06:56:38.881Z,15.95
2019-05-15T06:57:43.194Z,13.22
2019-05-15T06:58:48.781Z,14.15
2019-05-15T06:59:53.039Z,14.53
2019-05-15T07:00:59.182Z,14.43
2019-05-15T07:02:03.667Z,14.73
2019-05-15T07:03:18.089Z,14.53
2019-05-15T07:04:14.064Z,15.08
2019-05-15T07:05:18.776Z,13.20
2019-05-15T07:06:23.041Z,14.85
2019-05-15T07:07:28.763Z,16.52
2019-05-15T07:08:33.081Z,13.22
2019-05-15T07:09:38.114Z,17.73
2019-05-15T07:10:42.333Z,15.43
2019-05-15T07:11:48.214Z,17.00
2019-05-15T07:12:54.160Z,13.88
2019-05-15T07:13:58.814Z,15.68
2019-05-15T07:15:02.982Z,14.60
2019-05-15T07:16:08.243Z,16.20
2019-05-15T07:17:12.581Z,15.25
2019-05-15T07:18:19.390Z,14.93
2019-05-15T07:19:22.954Z,13.72
2019-05-15T07:20:28.491Z,14.10
2019-05-15T07:21:32.712Z,16.05
2019-05-15T07:22:39.087Z,13.68
2019-05-15T07:23:43.215Z,13.78
2019-05-15T07:24:47.993Z,15.55
2019-05-15T07:25:53.590Z,16.02
2019-05-15T07:26:59.138Z,16.95
2019-05-15T07:28:03.555Z,15.85
2019-05-15T07:29:08.308Z,15.43
2019-05-15T07:30:12.618Z,19.57
2019-05-15T07:31:18.038Z,15.40
2019-05-15T07:32:22.342Z,17.23
2019-05-15T07:33:38.695Z,16.12
2019-05-15T07:34:32.768Z,15.18
2019-05-15T07:35:38.431Z,14.63
2019-05-15T07:36:42.987Z,14.25
2019-05-15T07:37:47.924Z,16.25
2019-05-15T07:38:52.199Z,17.67
2019-05-15T07:39:58.999Z,19.00
2019-05-15T07:41:04.424Z,15.28
2019-05-15T07:42:08.858Z,18.70
2019-05-15T07:43:12.948Z,15.88
2019-05-15T07:44:18.891Z,18.67
2019-05-15T07:45:23.493Z,17.92
2019-05-15T07:46:28.866Z,19.05
2019-05-15T07:47:33.314Z,14.63
2019-05-15T07:48:38.487Z,17.73
2019-05-15T07:49:42.824Z,16.00
2019-05-15T07:50:49.716Z,18.98
2019-05-15T07:51:53.366Z,17.65
2019-05-15T07:52:59.079Z,12.70
2019-05-15T07:54:03.357Z,15.50
2019-05-15T07:55:09.525Z,15.08
2019-05-15T07:56:13.639Z,15.45
2019-05-15T07:57:19.317Z,14.68
2019-05-15T07:58:23.659Z,15.88
2019-05-15T07:59:28.380Z,16.32
2019-05-15T08:00:32.690Z,17.52
2019-05-15T08:01:38.691Z,16.48
2019-05-15T08:02:43.008Z,17.37
2019-05-15T08:03:59.194Z,14.58
2019-05-15T08:04:53.426Z,14.47
2019-05-15T08:06:02.310Z,15.98
2019-05-15T08:07:03.847Z,15.05
2019-05-15T08:08:08.922Z,14.95
2019-05-15T08:09:13.038Z,16.95
2019-05-15T08:10:18.694Z,17.35
2019-05-15T08:11:24.796Z,18.32
2019-05-15T08:12:29.039Z,23.18
2019-05-15T08:13:33.134Z,16.10
2019-05-15T08:14:38.770Z,17.50
2019-05-15T08:15:43.186Z,14.18
2019-05-15T08:16:48.513Z,15.90
2019-05-15T08:18:05.456Z,16.73
2019-05-15T08:18:59.206Z,14.87
2019-05-15T08:20:04.932Z,18.65
2019-05-15T08:21:09.626Z,15.35
2019-05-15T08:22:15.195Z,16.10
2019-05-15T08:23:20.022Z,15.48
2019-05-15T08:24:24.110Z,18.42
2019-05-15T08:25:35.127Z,18.85
2019-05-15T08:26:34.528Z,16.97
2019-05-15T08:27:39.164Z,13.78
2019-05-15T08:28:43.255Z,18.30
2019-05-15T08:29:48.732Z,14.95
2019-05-15T08:30:53.018Z,16.45
2019-05-15T08:31:59.022Z,14.73
2019-05-15T08:33:03.418Z,13.53
2019-05-15T08:34:13.661Z,17.60
2019-05-15T08:35:14.327Z,15.75
2019-05-15T08:36:19.019Z,15.65
2019-05-15T08:37:23.156Z,17.52
2019-05-15T08:38:28.813Z,12.37
2019-05-15T08:39:34.766Z,15.20
2019-05-15T08:40:41.006Z,16.52
2019-05-15T08:41:45.422Z,15.15
2019-05-15T08:42:56.596Z,15.50
2019-05-15T08:43:57.939Z,16.75
2019-05-15T08:45:02.755Z,17.57
2019-05-15T08:46:08.252Z,15.05
2019-05-15T08:47:13.304Z,14.13
2019-05-15T08:48:18.485Z,17.57
2019-05-15T08:49:23.543Z,16.45
2019-05-15T08:50:28.722Z,14.75
2019-05-15T08:51:33.445Z,17.12
2019-05-15T08:52:39.295Z,14.45
2019-05-15T08:53:44.134Z,16.50
2019-05-15T08:54:48.758Z,13.45
2019-05-15T08:55:53.633Z,17.75
2019-05-15T08:56:59.163Z,15.55
2019-05-15T08:58:08.489Z,13.95
2019-05-15T08:59:09.813Z,16.25
2019-05-15T09:00:14.902Z,14.65
2019-05-15T09:01:19.143Z,16.37
2019-05-15T09:02:23.780Z,16.02
2019-05-15T09:03:28.625Z,13.35
2019-05-15T09:04:35.058Z,14.75
2019-05-15T09:05:39.019Z,14.45
2019-05-15T09:06:43.656Z,17.15
2019-05-15T09:07:48.704Z,16.97
2019-05-15T09:08:53.610Z,16.32
2019-05-15T09:09:58.035Z,15.53
2019-05-15T09:11:03.074Z,14.47
2019-05-15T09:12:08.267Z,16.90
2019-05-15T09:13:13.182Z,15.83
2019-05-15T09:14:18.533Z,15.32
2019-05-15T09:15:23.863Z,15.43
2019-05-15T09:16:28.125Z,17.73
2019-05-15T09:17:32.858Z,16.97
2019-05-15T09:18:39.095Z,16.25
2019-05-15T09:19:43.330Z,13.30
2019-05-15T09:20:49.249Z,13.78
2019-05-15T09:21:53.829Z,15.05
2019-05-15T09:22:58.342Z,16.00
2019-05-15T09:24:04.595Z,15.88
2019-05-15T09:25:10.616Z,16.52
2019-05-15T09:26:15.294Z,16.23
2019-05-15T09:27:19.466Z,15.75
2019-05-15T09:28:24.094Z,17.62
2019-05-15T09:29:28.506Z,17.00
2019-05-15T09:30:33.384Z,17.30
2019-05-15T09:31:39.140Z,20.08
2019-05-15T09:32:43.742Z,17.20
2019-05-15T09:33:49.286Z,16.05
2019-05-15T09:34:55.631Z,18.95
2019-05-15T09:35:59.893Z,16.95
2019-05-15T09:37:04.617Z,14.63
2019-05-15T09:38:09.332Z,14.43
2019-05-15T09:39:29.135Z,15.00
2019-05-15T09:40:20.249Z,16.82
2019-05-15T09:41:24.968Z,16.12
2019-05-15T09:42:29.178Z,16.05
2019-05-15T09:43:33.874Z,18.70
2019-05-15T09:44:39.168Z,16.27
2019-05-15T09:45:43.966Z,16.67
2019-05-15T09:46:48.914Z,16.37
2019-05-15T09:47:53.628Z,15.28
2019-05-15T09:48:59.274Z,15.10
2019-05-15T09:50:05.553Z,17.15
2019-05-15T09:51:09.695Z,18.35
2019-05-15T09:52:14.366Z,13.22
2019-05-15T09:53:19.236Z,18.32
2019-05-15T09:54:25.664Z,14.38
2019-05-15T09:55:29.904Z,14.98
2019-05-15T09:56:34.527Z,16.93
2019-05-15T09:57:39.203Z,17.35
2019-05-15T09:58:43.872Z,14.50
2019-05-15T09:59:48.845Z,14.03
2019-05-15T10:00:53.811Z,13.75
2019-05-15T10:01:58.901Z,15.28
2019-05-15T10:03:03.673Z,16.32
2019-05-15T10:04:08.306Z,15.90
2019-05-15T10:05:14.381Z,14.87
2019-05-15T10:06:20.608Z,15.18
2019-05-15T10:07:24.906Z,12.93
2019-05-15T10:08:29.381Z,16.35
2019-05-15T10:09:35.635Z,15.15
2019-05-15T10:10:39.710Z,16.35
2019-05-15T10:11:44.528Z,14.90
2019-05-15T10:12:49.530Z,18.07
2019-05-15T10:13:54.352Z,13.13
2019-05-15T10:14:59.193Z,15.70
2019-05-15T10:16:04.103Z,17.00
2019-05-15T10:17:09.217Z,15.15
2019-05-15T10:18:14.144Z,17.30
2019-05-15T10:19:18.701Z,14.13
2019-05-15T10:20:23.563Z,16.52
2019-05-15T10:21:32.148Z,17.50
2019-05-15T10:22:34.127Z,15.30
2019-05-15T10:23:40.334Z,17.92
2019-05-15T10:24:44.528Z,16.75
2019-05-15T10:25:48.823Z,18.52
2019-05-15T10:26:53.634Z,18.57
2019-05-15T10:27:58.001Z,18.37
2019-05-15T10:29:02.831Z,17.75
2019-05-15T10:30:09.205Z,19.92
2019-05-15T10:31:14.062Z,13.58
2019-05-15T10:32:19.416Z,13.60
2019-05-15T10:33:24.394Z,15.93
2019-05-15T10:34:28.910Z,16.02
2019-05-15T10:35:33.660Z,13.90
2019-05-15T10:36:38.774Z,16.05
2019-05-15T10:37:43.440Z,16.73
2019-05-15T10:38:48.832Z,17.60
2019-05-15T10:39:53.805Z,14.30
2019-05-15T10:41:08.106Z,18.30
2019-05-15T10:42:04.212Z,14.95
2019-05-15T10:43:09.261Z,12.65
2019-05-15T10:44:14.230Z,10.98
2019-05-15T10:45:19.399Z,11.53
2019-05-15T10:46:24.251Z,11.70
2019-05-15T10:47:28.954Z,14.60
2019-05-15T10:48:34.258Z,12.90
2019-05-15T10:49:38.959Z,12.37
2019-05-15T10:50:43.747Z,10.82
2019-05-15T10:51:47.846Z,12.03
2019-05-15T10:52:52.582Z,9.50
2019-05-15T10:53:56.655Z,10.80
2019-05-15T10:55:01.331Z,10.40
2019-05-15T10:56:05.677Z,9.00
2019-05-15T10:57:10.302Z,10.43
2019-05-15T10:58:20.957Z,7.97
2019-05-15T10:59:20.613Z,6.22
2019-05-15T11:00:25.201Z,8.40
2019-05-15T11:01:29.837Z,8.88
2019-05-15T11:02:34.095Z,7.72
2019-05-15T11:03:39.977Z,6.37
2019-05-15T11:04:44.699Z,7.60
2019-05-15T11:05:49.486Z,5.80
2019-05-15T11:06:53.577Z,5.45
2019-05-15T11:07:58.921Z,7.00
2019-05-15T11:09:08.216Z,5.65
2019-05-15T11:10:12.132Z,5.95
2019-05-15T11:11:18.200Z,5.62
2019-05-15T11:12:22.514Z,6.97
2019-05-15T11:13:28.680Z,6.78
2019-05-15T11:14:33.111Z,8.28
2019-05-15T11:15:40.503Z,6.30
2019-05-15T11:16:43.638Z,5.55
2019-05-15T11:17:49.159Z,5.97
2019-05-15T11:18:54.030Z,5.92
2019-05-15T11:19:58.623Z,7.15
2019-05-15T11:21:03.411Z,9.55
2019-05-15T11:22:09.067Z,6.15
2019-05-15T11:23:19.532Z,10.05
2019-05-15T11:24:22.685Z,5.90
2019-05-15T11:25:29.941Z,8.68
2019-05-15T11:26:33.619Z,7.20
2019-05-15T11:27:39.124Z,9.45
2019-05-15T11:28:43.567Z,8.58
2019-05-15T11:29:48.235Z,8.58
2019-05-15T11:30:52.381Z,6.90
2019-05-15T11:31:58.105Z,8.23
2019-05-15T11:33:02.541Z,7.15
2019-05-15T11:34:09.328Z,6.42
2019-05-15T11:35:14.974Z,7.58
2019-05-15T11:36:19.586Z,6.78
2019-05-15T11:37:23.659Z,8.33
2019-05-15T11:38:28.915Z,7.17
2019-05-15T11:39:33.391Z,9.60
2019-05-15T11:40:38.889Z,10.18
2019-05-15T11:41:43.173Z,7.62
2019-05-15T11:42:48.726Z,8.43
2019-05-15T11:43:53.083Z,7.80
2019-05-15T11:44:58.445Z,7.72
2019-05-15T11:46:02.752Z,8.23
2019-05-15T11:47:07.506Z,8.83
2019-05-15T11:48:11.618Z,7.42
2019-05-15T11:49:18.252Z,8.40
2019-05-15T11:50:23.550Z,9.65
2019-05-15T11:51:29.021Z,9.28
2019-05-15T11:52:36.371Z,8.90
2019-05-15T11:53:39.965Z,8.63
2019-05-15T11:54:44.177Z,8.18
2019-05-15T11:55:48.646Z,8.43
2019-05-15T11:56:52.793Z,10.08
2019-05-15T11:57:59.376Z,11.05
2019-05-15T11:59:03.213Z,8.53
2019-05-15T12:00:17.271Z,9.23
2019-05-15T12:01:15.356Z,8.05
2019-05-15T12:02:20.026Z,8.85
2019-05-15T12:03:24.921Z,8.90
2019-05-15T12:04:34.125Z,8.68
2019-05-15T12:05:38.291Z,7.85
2019-05-15T12:06:41.916Z,8.68
2019-05-15T12:07:47.910Z,8.60
2019-05-15T12:08:52.284Z,7.92
2019-05-15T12:09:58.091Z,7.75
2019-05-15T12:11:02.621Z,9.75
2019-05-15T12:12:08.811Z,7.97
2019-05-15T12:13:12.956Z,9.10
2019-05-15T12:14:19.419Z,9.45
2019-05-15T12:15:23.433Z,7.90
2019-05-15T12:16:29.071Z,9.28
2019-05-15T12:17:34.281Z,10.13
2019-05-15T12:18:39.026Z,11.22
2019-05-15T12:19:43.865Z,10.45
2019-05-15T12:20:48.617Z,9.08
2019-05-15T12:21:53.426Z,7.92
2019-05-15T12:22:59.461Z,7.83
2019-05-15T12:24:03.851Z,8.73
2019-05-15T12:25:10.015Z,9.20
2019-05-15T12:26:15.032Z,8.55
2019-05-15T12:27:19.245Z,10.08
2019-05-15T12:28:23.913Z,9.80
2019-05-15T12:29:28.626Z,8.83
2019-05-15T12:30:33.608Z,7.80
2019-05-15T12:31:38.811Z,12.45
2019-05-15T12:32:43.719Z,7.97
2019-05-15T12:33:49.346Z,8.08
2019-05-15T12:34:54.000Z,8.83
2019-05-15T12:35:58.451Z,8.10
2019-05-15T12:37:03.051Z,8.55
2019-05-15T12:38:09.945Z,9.23
2019-05-15T12:39:14.022Z,8.33
2019-05-15T13:00:10.667Z,7.05
2019-05-15T13:01:18.271Z,5.72
2019-05-15T13:02:23.585Z,6.00
2019-05-15T13:03:28.987Z,6.90
2019-05-15T13:04:33.418Z,5.12
2019-05-15T13:05:39.302Z,5.70
2019-05-15T13:06:49.453Z,6.83
2019-05-15T13:07:49.827Z,6.40
2019-05-15T13:08:53.968Z,6.70
2019-05-15T13:09:58.603Z,5.62
2019-05-15T13:11:02.733Z,7.17
2019-05-15T13:12:08.535Z,6.30
2019-05-15T13:13:12.803Z,5.20
2019-05-15T13:14:18.891Z,6.28
2019-05-15T13:15:23.125Z,6.53
2019-05-15T13:16:28.195Z,5.20
2019-05-15T13:17:32.458Z,5.65
2019-05-15T13:18:38.787Z,7.37
2019-05-15T13:19:43.057Z,6.42
2019-05-15T13:20:48.980Z,7.22
2019-05-15T13:21:53.221Z,6.17
2019-05-15T13:23:00.379Z,4.92
2019-05-15T13:24:03.526Z,4.87
2019-05-15T13:25:09.222Z,5.53
2019-05-15T13:26:23.788Z,6.90
2019-05-15T13:27:22.548Z,7.40
2019-05-15T13:28:28.773Z,6.25
2019-05-15T13:29:33.050Z,6.17
2019-05-15T13:30:40.459Z,4.30
2019-05-15T13:31:43.539Z,4.53
2019-05-15T13:32:49.587Z,5.85
2019-05-15T13:33:53.916Z,5.40
2019-05-15T13:34:59.525Z,6.03
2019-05-15T13:36:04.325Z,7.12
2019-05-15T13:37:08.961Z,4.62
2019-05-15T13:38:13.898Z,4.80
2019-05-15T13:39:18.504Z,5.67
2019-05-15T13:40:35.039Z,5.55
2019-05-15T13:41:29.256Z,3.98
2019-05-15T13:42:35.392Z,4.58
2019-05-15T13:43:39.535Z,5.37
2019-05-15T13:44:44.159Z,7.15
2019-05-15T13:45:49.151Z,7.40
2019-05-15T13:46:53.974Z,4.65
2019-05-15T13:47:58.069Z,4.95
2019-05-15T13:49:02.848Z,4.05
2019-05-15T13:50:08.622Z,3.90
2019-05-15T13:51:13.100Z,4.08
2019-05-15T13:52:18.788Z,4.40
2019-05-15T13:53:23.728Z,4.60
2019-05-15T13:54:28.561Z,5.15
2019-05-15T13:55:37.370Z,4.15
2019-05-15T13:56:39.304Z,4.28
2019-05-15T13:57:43.960Z,4.40
2019-05-15T13:58:50.510Z,5.62
2019-05-15T13:59:55.466Z,5.62
2019-05-15T14:00:59.684Z,5.70
2019-05-15T14:02:04.451Z,4.58
2019-05-15T14:03:09.331Z,5.05
2019-05-15T14:04:18.161Z,4.62
2019-05-15T14:05:21.279Z,5.95
2019-05-15T14:06:28.433Z,4.90
2019-05-15T14:07:44.962Z,5.87
2019-05-15T14:08:38.404Z,4.35
2019-05-15T14:09:44.693Z,4.42
2019-05-15T14:10:49.127Z,5.05
2019-05-15T14:11:53.197Z,5.17
2019-05-15T14:12:58.378Z,5.12
2019-05-15T14:14:02.642Z,4.33
2019-05-15T14:15:09.240Z,4.28
2019-05-15T14:16:14.866Z,4.17
2019-05-15T14:17:19.563Z,4.50
2019-05-15T14:18:23.635Z,6.62
2019-05-15T14:19:28.279Z,6.40
2019-05-15T14:20:34.402Z,5.17
2019-05-15T14:21:39.099Z,5.47
2019-05-15T14:22:43.347Z,7.37
2019-05-15T14:23:48.092Z,4.47
2019-05-15T14:24:52.148Z,4.28
2019-05-15T14:25:58.889Z,6.03
2019-05-15T14:27:08.873Z,5.12